sensor_id;sensor_type;location;lat;lon;timestamp;pressure;altitude;pressure_sealevel;temperature
20867;BMP280;10593;48.398;10.698;2023-04-03T00:00:06;96776.34;;;14.00
20867;BMP280;10593;48.398;10.698;2023-04-03T00:02:32;96782.34;;;14.00
20867;BMP280;10593;48.398;10.698;2023-04-03T00:04:58;96770.31;;;13.99
20867;BMP280;10593;48.398;10.698;2023-04-03T00:07:23;96783.22;;;14.01
20867;BMP280;10593;48.398;10.698;2023-04-03T00:09:49;96777.25;;;13.99
20867;BMP280;10593;48.398;10.698;2023-04-03T00:12:15;96777.19;;;14.00
20867;BMP280;10593;48.398;10.698;2023-04-03T00:14:41;96779.84;;;13.99
20867;BMP280;10593;48.398;10.698;2023-04-03T00:17:06;96777.25;;;13.99
20867;BMP280;10593;48.398;10.698;2023-04-03T00:19:32;96774.66;;;13.99
20867;BMP280;10593;48.398;10.698;2023-04-03T00:21:58;96774.69;;;13.97
20867;BMP280;10593;48.398;10.698;2023-04-03T00:24:23;96780.69;;;13.98
20867;BMP280;10593;48.398;10.698;2023-04-03T00:26:49;96774.69;;;13.96
20867;BMP280;10593;48.398;10.698;2023-04-03T00:29:15;96773.91;;;13.94
20867;BMP280;10593;48.398;10.698;2023-04-03T00:31:40;96765.34;;;13.92
20867;BMP280;10593;48.398;10.698;2023-04-03T00:34:06;96772.22;;;13.91
20867;BMP280;10593;48.398;10.698;2023-04-03T00:36:32;96776.56;;;13.91
20867;BMP280;10593;48.398;10.698;2023-04-03T00:38:57;96767.94;;;13.90
20867;BMP280;10593;48.398;10.698;2023-04-03T00:41:23;96778.28;;;13.90
20867;BMP280;10593;48.398;10.698;2023-04-03T00:43:49;96776.63;;;13.88
20867;BMP280;10593;48.398;10.698;2023-04-03T00:46:14;96774.03;;;13.88
20867;BMP280;10593;48.398;10.698;2023-04-03T00:48:46;96769.75;;;13.87
20867;BMP280;10593;48.398;10.698;2023-04-03T00:51:24;96765.50;;;13.84
20867;BMP280;10593;48.398;10.698;2023-04-03T00:54:02;96764.69;;;13.82
20867;BMP280;10593;48.398;10.698;2023-04-03T00:56:30;96757.84;;;13.81
20867;BMP280;10593;48.398;10.698;2023-04-03T00:59:06;96760.44;;;13.80
20867;BMP280;10593;48.398;10.698;2023-04-03T01:01:33;96756.19;;;13.77
20867;BMP280;10593;48.398;10.698;2023-04-03T01:04:00;96757.03;;;13.78
20867;BMP280;10593;48.398;10.698;2023-04-03T01:06:31;96756.22;;;13.76
20867;BMP280;10593;48.398;10.698;2023-04-03T01:08:59;96756.22;;;13.76
20867;BMP280;10593;48.398;10.698;2023-04-03T01:11:25;96754.53;;;13.75
20867;BMP280;10593;48.398;10.698;2023-04-03T01:13:51;96756.31;;;13.73
20867;BMP280;10593;48.398;10.698;2023-04-03T01:16:18;96758.03;;;13.71
20867;BMP280;10593;48.398;10.698;2023-04-03T01:18:44;96757.22;;;13.69
20867;BMP280;10593;48.398;10.698;2023-04-03T01:21:36;96760.78;;;13.65
20867;BMP280;10593;48.398;10.698;2023-04-03T01:24:31;96758.22;;;13.63
20867;BMP280;10593;48.398;10.698;2023-04-03T01:26:57;96758.28;;;13.60
20867;BMP280;10593;48.398;10.698;2023-04-03T01:29:23;96762.63;;;13.60
20867;BMP280;10593;48.398;10.698;2023-04-03T01:31:58;96760.91;;;13.59
20867;BMP280;10593;48.398;10.698;2023-04-03T01:34:25;96760.91;;;13.59
20867;BMP280;10593;48.398;10.698;2023-04-03T01:36:52;96757.50;;;13.57
20867;BMP280;10593;48.398;10.698;2023-04-03T01:39:18;96758.34;;;13.57
20867;BMP280;10593;48.398;10.698;2023-04-03T01:41:44;96768.69;;;13.56
20867;BMP280;10593;48.398;10.698;2023-04-03T01:44:10;96767.81;;;13.57
20867;BMP280;10593;48.398;10.698;2023-04-03T01:46:36;96761.84;;;13.55
20867;BMP280;10593;48.398;10.698;2023-04-03T01:49:04;96762.72;;;13.55
20867;BMP280;10593;48.398;10.698;2023-04-03T01:51:30;96755.84;;;13.54
20867;BMP280;10593;48.398;10.698;2023-04-03T01:53:56;96757.56;;;13.54
20867;BMP280;10593;48.398;10.698;2023-04-03T01:56:22;96756.72;;;13.53
20867;BMP280;10593;48.398;10.698;2023-04-03T01:58:47;96762.78;;;13.52
20867;BMP280;10593;48.398;10.698;2023-04-03T02:01:13;96761.91;;;13.52
20867;BMP280;10593;48.398;10.698;2023-04-03T02:03:39;96765.38;;;13.51
20867;BMP280;10593;48.398;10.698;2023-04-03T02:06:05;96753.34;;;13.50
20867;BMP280;10593;48.398;10.698;2023-04-03T02:08:31;96759.41;;;13.49
20867;BMP280;10593;48.398;10.698;2023-04-03T02:10:56;96756.84;;;13.47
20867;BMP280;10593;48.398;10.698;2023-04-03T02:13:22;96761.16;;;13.47
20867;BMP280;10593;48.398;10.698;2023-04-03T02:15:48;96767.22;;;13.44
20867;BMP280;10593;48.398;10.698;2023-04-03T02:18:14;96758.63;;;13.44
20867;BMP280;10593;48.398;10.698;2023-04-03T02:20:40;96756.03;;;13.44
20867;BMP280;10593;48.398;10.698;2023-04-03T02:23:06;96762.09;;;13.43
20867;BMP280;10593;48.398;10.698;2023-04-03T02:25:32;96762.97;;;13.42
20867;BMP280;10593;48.398;10.698;2023-04-03T02:27:58;96763.03;;;13.39
20867;BMP280;10593;48.398;10.698;2023-04-03T02:30:24;96757.06;;;13.38
20867;BMP280;10593;48.398;10.698;2023-04-03T02:32:50;96757.91;;;13.37
20867;BMP280;10593;48.398;10.698;2023-04-03T02:35:16;96757.09;;;13.35
20867;BMP280;10593;48.398;10.698;2023-04-03T02:37:42;96753.66;;;13.35
20867;BMP280;10593;48.398;10.698;2023-04-03T02:40:08;96756.25;;;13.35
20867;BMP280;10593;48.398;10.698;2023-04-03T02:42:34;96758.91;;;13.32
20867;BMP280;10593;48.398;10.698;2023-04-03T02:45:00;96758.03;;;13.31
20867;BMP280;10593;48.398;10.698;2023-04-03T02:47:28;96758.91;;;13.30
20867;BMP280;10593;48.398;10.698;2023-04-03T02:49:54;96758.06;;;13.30
20867;BMP280;10593;48.398;10.698;2023-04-03T02:52:20;96754.63;;;13.31
20867;BMP280;10593;48.398;10.698;2023-04-03T02:54:46;96758.09;;;13.28
20867;BMP280;10593;48.398;10.698;2023-04-03T02:57:12;96763.28;;;13.27
20867;BMP280;10593;48.398;10.698;2023-04-03T02:59:38;96759.06;;;13.23
20867;BMP280;10593;48.398;10.698;2023-04-03T03:02:08;96762.53;;;13.22
20867;BMP280;10593;48.398;10.698;2023-04-03T03:04:34;96760.03;;;13.19
20867;BMP280;10593;48.398;10.698;2023-04-03T03:07:00;96762.63;;;13.16
20867;BMP280;10593;48.398;10.698;2023-04-03T03:09:26;96763.56;;;13.13
20867;BMP280;10593;48.398;10.698;2023-04-03T03:11:52;96755.84;;;13.12
20867;BMP280;10593;48.398;10.698;2023-04-03T03:14:18;96767.06;;;13.11
20867;BMP280;10593;48.398;10.698;2023-04-03T03:16:44;96765.34;;;13.10
20867;BMP280;10593;48.398;10.698;2023-04-03T03:19:10;96761.91;;;13.09
20867;BMP280;10593;48.398;10.698;2023-04-03T03:21:36;96754.28;;;13.05
20867;BMP280;10593;48.398;10.698;2023-04-03T03:24:01;96762.06;;;13.02
20867;BMP280;10593;48.398;10.698;2023-04-03T03:26:27;96755.25;;;12.99
20867;BMP280;10593;48.398;10.698;2023-04-03T03:28:53;96764.75;;;12.96
20867;BMP280;10593;48.398;10.698;2023-04-03T03:31:19;96763.94;;;12.94
20867;BMP280;10593;48.398;10.698;2023-04-03T03:33:44;96751.09;;;12.91
20867;BMP280;10593;48.398;10.698;2023-04-03T03:36:10;96752.00;;;12.87
20867;BMP280;10593;48.398;10.698;2023-04-03T03:38:36;96756.34;;;12.85
20867;BMP280;10593;48.398;10.698;2023-04-03T03:41:02;96758.94;;;12.83
20867;BMP280;10593;48.398;10.698;2023-04-03T03:43:29;96763.28;;;12.81
20867;BMP280;10593;48.398;10.698;2023-04-03T03:45:55;96759.88;;;12.79
20867;BMP280;10593;48.398;10.698;2023-04-03T03:48:22;96756.47;;;12.77
20867;BMP280;10593;48.398;10.698;2023-04-03T03:50:48;96754.78;;;12.76
20867;BMP280;10593;48.398;10.698;2023-04-03T03:53:14;96761.69;;;12.74
20867;BMP280;10593;48.398;10.698;2023-04-03T03:55:40;96756.56;;;12.73
20867;BMP280;10593;48.398;10.698;2023-04-03T03:58:06;96760.00;;;12.72
20867;BMP280;10593;48.398;10.698;2023-04-03T04:00:32;96771.22;;;12.71
20867;BMP280;10593;48.398;10.698;2023-04-03T04:02:58;96774.66;;;12.70
20867;BMP280;10593;48.398;10.698;2023-04-03T04:05:23;96769.59;;;12.65
20867;BMP280;10593;48.398;10.698;2023-04-03T04:07:49;96775.63;;;12.64
20867;BMP280;10593;48.398;10.698;2023-04-03T04:10:15;96770.47;;;12.63
20867;BMP280;10593;48.398;10.698;2023-04-03T04:12:41;96775.69;;;12.61
20867;BMP280;10593;48.398;10.698;2023-04-03T04:15:07;96766.25;;;12.59
20867;BMP280;10593;48.398;10.698;2023-04-03T04:17:33;96774.88;;;12.56
20867;BMP280;10593;48.398;10.698;2023-04-03T04:20:01;96775.81;;;12.54
20867;BMP280;10593;48.398;10.698;2023-04-03T04:22:28;96781.88;;;12.50
20867;BMP280;10593;48.398;10.698;2023-04-03T04:24:53;96775.06;;;12.48
20867;BMP280;10593;48.398;10.698;2023-04-03T04:27:19;96778.53;;;12.47
20867;BMP280;10593;48.398;10.698;2023-04-03T04:29:44;96781.09;;;12.47
20867;BMP280;10593;48.398;10.698;2023-04-03T04:32:10;96785.38;;;12.46
20867;BMP280;10593;48.398;10.698;2023-04-03T04:34:36;96775.94;;;12.47
20867;BMP280;10593;48.398;10.698;2023-04-03T04:37:02;96780.22;;;12.46
20867;BMP280;10593;48.398;10.698;2023-04-03T04:39:28;96782.84;;;12.45
20867;BMP280;10593;48.398;10.698;2023-04-03T04:41:53;96776.88;;;12.41
20867;BMP280;10593;48.398;10.698;2023-04-03T04:44:19;96777.72;;;12.42
20867;BMP280;10593;48.398;10.698;2023-04-03T04:46:45;96775.19;;;12.40
20867;BMP280;10593;48.398;10.698;2023-04-03T04:49:11;96778.66;;;12.39
20867;BMP280;10593;48.398;10.698;2023-04-03T04:51:37;96776.09;;;12.36
20867;BMP280;10593;48.398;10.698;2023-04-03T04:54:02;96778.66;;;12.38
20867;BMP280;10593;48.398;10.698;2023-04-03T04:56:28;96778.69;;;12.36
20867;BMP280;10593;48.398;10.698;2023-04-03T04:58:53;96777.84;;;12.34
20867;BMP280;10593;48.398;10.698;2023-04-03T05:01:19;96775.31;;;12.33
20867;BMP280;10593;48.398;10.698;2023-04-03T05:03:45;96773.56;;;12.33
20867;BMP280;10593;48.398;10.698;2023-04-03T05:06:11;96772.75;;;12.33
20867;BMP280;10593;48.398;10.698;2023-04-03T05:08:37;96774.44;;;12.32
20867;BMP280;10593;48.398;10.698;2023-04-03T05:11:02;96780.50;;;12.30
20867;BMP280;10593;48.398;10.698;2023-04-03T05:13:28;96779.69;;;12.28
20867;BMP280;10593;48.398;10.698;2023-04-03T05:15:54;96777.97;;;12.27
20867;BMP280;10593;48.398;10.698;2023-04-03T05:18:19;96782.28;;;12.26
20867;BMP280;10593;48.398;10.698;2023-04-03T05:20:48;96786.59;;;12.26
20867;BMP280;10593;48.398;10.698;2023-04-03T05:23:14;96790.91;;;12.24
20867;BMP280;10593;48.398;10.698;2023-04-03T05:25:40;96785.78;;;12.22
20867;BMP280;10593;48.398;10.698;2023-04-03T05:28:06;96791.78;;;12.23
20867;BMP280;10593;48.398;10.698;2023-04-03T05:30:32;96794.38;;;12.21
20867;BMP280;10593;48.398;10.698;2023-04-03T05:32:59;96800.41;;;12.20
20867;BMP280;10593;48.398;10.698;2023-04-03T05:35:25;96794.41;;;12.20
20867;BMP280;10593;48.398;10.698;2023-04-03T05:37:50;96795.25;;;12.20
20867;BMP280;10593;48.398;10.698;2023-04-03T05:40:16;96794.44;;;12.18
20867;BMP280;10593;48.398;10.698;2023-04-03T05:42:43;96800.47;;;12.16
20867;BMP280;10593;48.398;10.698;2023-04-03T05:45:10;96803.97;;;12.13
20867;BMP280;10593;48.398;10.698;2023-04-03T05:47:35;96803.97;;;12.13
20867;BMP280;10593;48.398;10.698;2023-04-03T05:50:01;96797.94;;;12.13
20867;BMP280;10593;48.398;10.698;2023-04-03T05:52:30;96810.88;;;12.11
20867;BMP280;10593;48.398;10.698;2023-04-03T05:54:57;96804.88;;;12.09
20867;BMP280;10593;48.398;10.698;2023-04-03T05:57:23;96810.88;;;12.08
20867;BMP280;10593;48.398;10.698;2023-04-03T05:59:49;96809.19;;;12.07
20867;BMP280;10593;48.398;10.698;2023-04-03T06:02:21;96811.75;;;12.07
20867;BMP280;10593;48.398;10.698;2023-04-03T06:04:48;96814.41;;;12.04
20867;BMP280;10593;48.398;10.698;2023-04-03T06:07:19;96813.56;;;12.04
20867;BMP280;10593;48.398;10.698;2023-04-03T06:09:47;96815.28;;;12.03
20867;BMP280;10593;48.398;10.698;2023-04-03T06:12:13;96814.44;;;12.01
20867;BMP280;10593;48.398;10.698;2023-04-03T06:14:39;96809.28;;;12.01
20867;BMP280;10593;48.398;10.698;2023-04-03T06:17:04;96808.41;;;12.02
20867;BMP280;10593;48.398;10.698;2023-04-03T06:19:31;96821.28;;;12.04
20867;BMP280;10593;48.398;10.698;2023-04-03T06:21:57;96814.41;;;12.03
20867;BMP280;10593;48.398;10.698;2023-04-03T06:24:23;96821.28;;;12.02
20867;BMP280;10593;48.398;10.698;2023-04-03T06:26:51;96820.47;;;12.00
20867;BMP280;10593;48.398;10.698;2023-04-03T06:29:21;96820.47;;;12.00
20867;BMP280;10593;48.398;10.698;2023-04-03T06:31:48;96823.91;;;11.99
20867;BMP280;10593;48.398;10.698;2023-04-03T06:34:14;96817.94;;;11.97
20867;BMP280;10593;48.398;10.698;2023-04-03T06:36:41;96819.69;;;11.94
20867;BMP280;10593;48.398;10.698;2023-04-03T06:39:13;96816.25;;;11.93
20867;BMP280;10593;48.398;10.698;2023-04-03T06:41:39;96813.72;;;11.90
20867;BMP280;10593;48.398;10.698;2023-04-03T06:44:05;96820.59;;;11.91
20867;BMP280;10593;48.398;10.698;2023-04-03T06:46:31;96823.16;;;11.91
20867;BMP280;10593;48.398;10.698;2023-04-03T06:48:57;96829.19;;;11.92
20867;BMP280;10593;48.398;10.698;2023-04-03T06:51:27;96830.88;;;11.91
20867;BMP280;10593;48.398;10.698;2023-04-03T06:53:55;96828.31;;;11.93
20867;BMP280;10593;48.398;10.698;2023-04-03T06:56:22;96826.56;;;11.93
20867;BMP280;10593;48.398;10.698;2023-04-03T06:58:48;96828.31;;;11.91
20867;BMP280;10593;48.398;10.698;2023-04-03T07:01:16;96833.47;;;11.91
20867;BMP280;10593;48.398;10.698;2023-04-03T07:03:45;96838.66;;;11.90
20867;BMP280;10593;48.398;10.698;2023-04-03T07:06:14;96836.09;;;11.88
20867;BMP280;10593;48.398;10.698;2023-04-03T07:08:40;96835.28;;;11.85
20867;BMP280;10593;48.398;10.698;2023-04-03T07:11:08;96849.88;;;11.84
20867;BMP280;10593;48.398;10.698;2023-04-03T07:13:35;96843.88;;;11.84
20867;BMP280;10593;48.398;10.698;2023-04-03T07:16:02;96843.91;;;11.81
20867;BMP280;10593;48.398;10.698;2023-04-03T07:18:29;96848.25;;;11.79
20867;BMP280;10593;48.398;10.698;2023-04-03T07:20:55;96854.28;;;11.75
20867;BMP280;10593;48.398;10.698;2023-04-03T07:23:21;96850.03;;;11.72
20867;BMP280;10593;48.398;10.698;2023-04-03T07:25:49;96854.31;;;11.72
20867;BMP280;10593;48.398;10.698;2023-04-03T07:28:17;96856.00;;;11.74
20867;BMP280;10593;48.398;10.698;2023-04-03T07:30:48;96854.25;;;11.76
20867;BMP280;10593;48.398;10.698;2023-04-03T07:33:16;96867.97;;;11.78
20867;BMP280;10593;48.398;10.698;2023-04-03T07:35:43;96861.09;;;11.79
20867;BMP280;10593;48.398;10.698;2023-04-03T07:38:09;96861.97;;;11.78
20867;BMP280;10593;48.398;10.698;2023-04-03T07:40:36;96863.69;;;11.79
20867;BMP280;10593;48.398;10.698;2023-04-03T07:43:02;96865.38;;;11.80
20867;BMP280;10593;48.398;10.698;2023-04-03T07:45:29;96864.50;;;11.81
20867;BMP280;10593;48.398;10.698;2023-04-03T07:47:55;96867.09;;;11.81
20867;BMP280;10593;48.398;10.698;2023-04-03T07:50:21;96865.34;;;11.83
20867;BMP280;10593;48.398;10.698;2023-04-03T07:52:48;96867.88;;;11.86
20867;BMP280;10593;48.398;10.698;2023-04-03T07:55:14;96869.56;;;11.88
20867;BMP280;10593;48.398;10.698;2023-04-03T07:57:40;96878.97;;;11.91
20867;BMP280;10593;48.398;10.698;2023-04-03T08:00:07;96879.00;;;11.89
20867;BMP280;10593;48.398;10.698;2023-04-03T08:02:34;96872.97;;;11.89
20867;BMP280;10593;48.398;10.698;2023-04-03T08:05:00;96881.56;;;11.89
20867;BMP280;10593;48.398;10.698;2023-04-03T08:07:26;96884.16;;;11.88
20867;BMP280;10593;48.398;10.698;2023-04-03T08:09:52;96877.28;;;11.87
20867;BMP280;10593;48.398;10.698;2023-04-03T08:12:18;96878.16;;;11.87
20867;BMP280;10593;48.398;10.698;2023-04-03T08:14:43;96881.56;;;11.88
20867;BMP280;10593;48.398;10.698;2023-04-03T08:17:10;96886.72;;;11.91
20867;BMP280;10593;48.398;10.698;2023-04-03T08:19:38;96883.28;;;11.89
20867;BMP280;10593;48.398;10.698;2023-04-03T08:22:05;96892.72;;;11.90
20867;BMP280;10593;48.398;10.698;2023-04-03T08:24:34;96891.00;;;11.90
20867;BMP280;10593;48.398;10.698;2023-04-03T08:27:00;96886.72;;;11.89
20867;BMP280;10593;48.398;10.698;2023-04-03T08:29:26;96891.00;;;11.89
20867;BMP280;10593;48.398;10.698;2023-04-03T08:31:52;96884.13;;;11.89
20867;BMP280;10593;48.398;10.698;2023-04-03T08:34:19;96888.41;;;11.90
20867;BMP280;10593;48.398;10.698;2023-04-03T08:36:45;96880.69;;;11.90
20867;BMP280;10593;48.398;10.698;2023-04-03T08:39:11;96890.16;;;11.90
20867;BMP280;10593;48.398;10.698;2023-04-03T08:41:40;96885.00;;;11.90
20867;BMP280;10593;48.398;10.698;2023-04-03T08:44:27;96895.28;;;11.91
20867;BMP280;10593;48.398;10.698;2023-04-03T08:50:04;96895.28;;;11.91
20867;BMP280;10593;48.398;10.698;2023-04-03T08:52:42;96891.81;;;11.92
20867;BMP280;10593;48.398;10.698;2023-04-03T08:55:28;96893.53;;;11.93
20867;BMP280;10593;48.398;10.698;2023-04-03T08:58:05;96898.66;;;11.95
20867;BMP280;10593;48.398;10.698;2023-04-03T09:00:54;96897.78;;;11.94
20867;BMP280;10593;48.398;10.698;2023-04-03T09:03:22;96888.38;;;11.93
20867;BMP280;10593;48.398;10.698;2023-04-03T09:06:05;96891.75;;;11.97
20867;BMP280;10593;48.398;10.698;2023-04-03T09:11:41;96900.31;;;11.99
20867;BMP280;10593;48.398;10.698;2023-04-03T09:14:26;96896.00;;;12.02
20867;BMP280;10593;48.398;10.698;2023-04-03T09:17:31;96902.84;;;12.03
20867;BMP280;10593;48.398;10.698;2023-04-03T09:21:08;96897.69;;;12.03
20867;BMP280;10593;48.398;10.698;2023-04-03T09:23:21;96900.28;;;12.03
20867;BMP280;10593;48.398;10.698;2023-04-03T09:25:51;96900.28;;;12.03
20867;BMP280;10593;48.398;10.698;2023-04-03T09:28:19;96899.41;;;12.04
20867;BMP280;10593;48.398;10.698;2023-04-03T09:30:45;96896.00;;;12.02
20867;BMP280;10593;48.398;10.698;2023-04-03T09:33:13;96894.28;;;12.01
20867;BMP280;10593;48.398;10.698;2023-04-03T09:35:41;96898.56;;;12.01
20867;BMP280;10593;48.398;10.698;2023-04-03T09:40:38;96894.28;;;12.01
20867;BMP280;10593;48.398;10.698;2023-04-03T09:43:23;96902.84;;;12.02
20867;BMP280;10593;48.398;10.698;2023-04-03T09:45:50;96896.00;;;12.02
20867;BMP280;10593;48.398;10.698;2023-04-03T09:48:23;96891.66;;;12.04
20867;BMP280;10593;48.398;10.698;2023-04-03T09:53:43;96895.03;;;12.09
20867;BMP280;10593;48.398;10.698;2023-04-03T10:01:32;96894.94;;;12.17
20867;BMP280;10593;48.398;10.698;2023-04-03T10:04:18;96894.91;;;12.18
20867;BMP280;10593;48.398;10.698;2023-04-03T10:06:53;96889.75;;;12.20
20867;BMP280;10593;48.398;10.698;2023-04-03T10:09:31;96896.59;;;12.21
20867;BMP280;10593;48.398;10.698;2023-04-03T10:12:19;96895.69;;;12.23
20867;BMP280;10593;48.398;10.698;2023-04-03T10:14:56;96889.69;;;12.23
20867;BMP280;10593;48.398;10.698;2023-04-03T10:18:03;96883.69;;;12.22
20867;BMP280;10593;48.398;10.698;2023-04-03T10:20:46;96884.59;;;12.20
20867;BMP280;10593;48.398;10.698;2023-04-03T10:23:25;96880.28;;;12.20
20867;BMP280;10593;48.398;10.698;2023-04-03T10:26:15;96887.16;;;12.20
20867;BMP280;10593;48.398;10.698;2023-04-03T10:28:57;96884.59;;;12.20
20867;BMP280;10593;48.398;10.698;2023-04-03T10:34:37;96882.03;;;12.18
20867;BMP280;10593;48.398;10.698;2023-04-03T10:37:25;96885.44;;;12.20
20867;BMP280;10593;48.398;10.698;2023-04-03T10:43:44;96887.13;;;12.21
20867;BMP280;10593;48.398;10.698;2023-04-03T10:46:53;96888.84;;;12.22
20867;BMP280;10593;48.398;10.698;2023-04-03T10:49:30;96884.53;;;12.24
20867;BMP280;10593;48.398;10.698;2023-04-03T10:55:41;96892.22;;;12.26
20867;BMP280;10593;48.398;10.698;2023-04-03T10:58:24;96877.63;;;12.26
20867;BMP280;10593;48.398;10.698;2023-04-03T11:00:57;96876.72;;;12.29
20867;BMP280;10593;48.398;10.698;2023-04-03T11:03:38;96878.41;;;12.31
20867;BMP280;10593;48.398;10.698;2023-04-03T11:06:10;96877.53;;;12.34
20867;BMP280;10593;48.398;10.698;2023-04-03T11:08:48;96875.78;;;12.36
20867;BMP280;10593;48.398;10.698;2023-04-03T11:11:24;96877.47;;;12.38
20867;BMP280;10593;48.398;10.698;2023-04-03T11:14:05;96876.59;;;12.38
20867;BMP280;10593;48.398;10.698;2023-04-03T11:16:43;96875.69;;;12.40
20867;BMP280;10593;48.398;10.698;2023-04-03T11:19:36;96867.97;;;12.40
20867;BMP280;10593;48.398;10.698;2023-04-03T11:22:32;96868.81;;;12.41
20867;BMP280;10593;48.398;10.698;2023-04-03T11:25:15;96871.38;;;12.44
20867;BMP280;10593;48.398;10.698;2023-04-03T11:28:01;96867.91;;;12.43
20867;BMP280;10593;48.398;10.698;2023-04-03T11:30:47;96870.50;;;12.43
20867;BMP280;10593;48.398;10.698;2023-04-03T11:33:52;96869.66;;;12.41
20867;BMP280;10593;48.398;10.698;2023-04-03T11:36:30;96862.81;;;12.39
20867;BMP280;10593;48.398;10.698;2023-04-03T11:39:09;96865.41;;;12.39
20867;BMP280;10593;48.398;10.698;2023-04-03T11:41:39;96868.84;;;12.38
20867;BMP280;10593;48.398;10.698;2023-04-03T11:44:28;96865.41;;;12.40
20867;BMP280;10593;48.398;10.698;2023-04-03T11:46:58;96865.41;;;12.40
20867;BMP280;10593;48.398;10.698;2023-04-03T11:58:10;96862.00;;;12.37
20867;BMP280;10593;48.398;10.698;2023-04-03T12:01:12;96859.44;;;12.35
20867;BMP280;10593;48.398;10.698;2023-04-03T12:04:08;96852.63;;;12.31
20867;BMP280;10593;48.398;10.698;2023-04-03T12:09:04;96843.16;;;12.33
20867;BMP280;10593;48.398;10.698;2023-04-03T12:11:47;96851.69;;;12.37
20867;BMP280;10593;48.398;10.698;2023-04-03T12:14:16;96849.06;;;12.41
20867;BMP280;10593;48.398;10.698;2023-04-03T12:16:46;96847.31;;;12.43
20867;BMP280;10593;48.398;10.698;2023-04-03T12:19:35;96840.38;;;12.45
20867;BMP280;10593;48.398;10.698;2023-04-03T12:24:31;96835.19;;;12.48
20867;BMP280;10593;48.398;10.698;2023-04-03T12:35:27;96834.19;;;12.56
20867;BMP280;10593;48.398;10.698;2023-04-03T12:41:23;96828.13;;;12.60
20867;BMP280;10593;48.398;10.698;2023-04-03T12:47:01;96824.59;;;12.66
20867;BMP280;10593;48.398;10.698;2023-04-03T12:49:40;96818.50;;;12.70
20867;BMP280;10593;48.398;10.698;2023-04-03T12:52:41;96829.56;;;12.75
20867;BMP280;10593;48.398;10.698;2023-04-03T12:55:28;96824.41;;;12.78
20867;BMP280;10593;48.398;10.698;2023-04-03T12:57:53;96817.47;;;12.80
20867;BMP280;10593;48.398;10.698;2023-04-03T13:00:37;96810.56;;;12.82
20867;BMP280;10593;48.398;10.698;2023-04-03T13:03:06;96813.97;;;12.84
20867;BMP280;10593;48.398;10.698;2023-04-03T13:05:45;96812.19;;;12.86
20867;BMP280;10593;48.398;10.698;2023-04-03T13:08:22;96814.72;;;12.89
20867;BMP280;10593;48.398;10.698;2023-04-03T13:11:10;96821.56;;;12.90
20867;BMP280;10593;48.398;10.698;2023-04-03T13:13:37;96806.97;;;12.89
20867;BMP280;10593;48.398;10.698;2023-04-03T13:16:11;96810.41;;;12.91
20867;BMP280;10593;48.398;10.698;2023-04-03T13:18:38;96810.38;;;12.92
20867;BMP280;10593;48.398;10.698;2023-04-03T13:21:19;96802.59;;;12.95
20867;BMP280;10593;48.398;10.698;2023-04-03T13:23:50;96809.44;;;12.96
20867;BMP280;10593;48.398;10.698;2023-04-03T13:26:19;96800.81;;;12.99
20867;BMP280;10593;48.398;10.698;2023-04-03T13:28:47;96795.66;;;12.99
20867;BMP280;10593;48.398;10.698;2023-04-03T13:33:56;96803.41;;;12.99
20867;BMP280;10593;48.398;10.698;2023-04-03T13:36:30;96812.00;;;12.99
20867;BMP280;10593;48.398;10.698;2023-04-03T13:39:17;96800.88;;;12.97
20867;BMP280;10593;48.398;10.698;2023-04-03T13:41:53;96800.00;;;12.97
20867;BMP280;10593;48.398;10.698;2023-04-03T13:50:21;96793.16;;;12.96
20867;BMP280;10593;48.398;10.698;2023-04-03T13:53:02;96794.84;;;12.95
20867;BMP280;10593;48.398;10.698;2023-04-03T13:55:35;96812.06;;;12.95
20867;BMP280;10593;48.398;10.698;2023-04-03T14:00:39;96811.22;;;12.94
20867;BMP280;10593;48.398;10.698;2023-04-03T14:05:52;96803.50;;;12.91
20867;BMP280;10593;48.398;10.698;2023-04-03T14:08:19;96793.19;;;12.93
20867;BMP280;10593;48.398;10.698;2023-04-03T14:10:45;96790.56;;;12.96
20867;BMP280;10593;48.398;10.698;2023-04-03T14:13:18;96786.22;;;12.98
20867;BMP280;10593;48.398;10.698;2023-04-03T14:15:46;96782.75;;;12.99
20867;BMP280;10593;48.398;10.698;2023-04-03T14:18:17;96787.91;;;13.00
20867;BMP280;10593;48.398;10.698;2023-04-03T14:20:43;96781.88;;;13.01
20867;BMP280;10593;48.398;10.698;2023-04-03T14:23:10;96774.06;;;13.03
20867;BMP280;10593;48.398;10.698;2023-04-03T14:25:37;96779.19;;;13.06
20867;BMP280;10593;48.398;10.698;2023-04-03T14:28:19;96769.69;;;13.08
20867;BMP280;10593;48.398;10.698;2023-04-03T14:30:47;96779.13;;;13.09
20867;BMP280;10593;48.398;10.698;2023-04-03T14:33:17;96770.50;;;13.10
20867;BMP280;10593;48.398;10.698;2023-04-03T14:35:43;96769.66;;;13.09
20867;BMP280;10593;48.398;10.698;2023-04-03T14:38:26;96769.63;;;13.12
20867;BMP280;10593;48.398;10.698;2023-04-03T14:40:53;96766.16;;;13.13
20867;BMP280;10593;48.398;10.698;2023-04-03T14:43:19;96765.22;;;13.16
20867;BMP280;10593;48.398;10.698;2023-04-03T14:45:47;96769.47;;;13.18
20867;BMP280;10593;48.398;10.698;2023-04-03T14:48:21;96764.25;;;13.21
20867;BMP280;10593;48.398;10.698;2023-04-03T14:50:49;96760.78;;;13.24
20867;BMP280;10593;48.398;10.698;2023-04-03T14:53:16;96766.75;;;13.26
20867;BMP280;10593;48.398;10.698;2023-04-03T14:55:46;96756.41;;;13.27
20867;BMP280;10593;48.398;10.698;2023-04-03T14:58:18;96761.53;;;13.29
20867;BMP280;10593;48.398;10.698;2023-04-03T15:00:44;96767.56;;;13.28
20867;BMP280;10593;48.398;10.698;2023-04-03T15:03:21;96767.56;;;13.28
20867;BMP280;10593;48.398;10.698;2023-04-03T15:05:49;96765.91;;;13.25
20867;BMP280;10593;48.398;10.698;2023-04-03T15:08:24;96770.22;;;13.25
20867;BMP280;10593;48.398;10.698;2023-04-03T15:10:52;96772.81;;;13.23
20867;BMP280;10593;48.398;10.698;2023-04-03T15:13:19;96765.94;;;13.22
20867;BMP280;10593;48.398;10.698;2023-04-03T15:15:46;96761.66;;;13.23
20867;BMP280;10593;48.398;10.698;2023-04-03T15:18:21;96763.34;;;13.24
20867;BMP280;10593;48.398;10.698;2023-04-03T15:20:48;96760.78;;;13.24
20867;BMP280;10593;48.398;10.698;2023-04-03T15:23:15;96761.66;;;13.23